Time;durP1;ratioP1;P1;durP2;ratioP2;P2;SDS_P1;SDS_P2;PMS_P1;PMS_P2;Temp;Humidity;BMP_temperature;BMP_pressure;BME280_temperature;BME280_humidity;BME280_pressure;Samples;Min_cycle;Max_cycle;Signal;HPM_P1;HPM_P2
2022/04/21 00:01:09;;;;;;;9.93;4.60;;;14.60;99.90;;;;;;5061665;28;20045;-76
2022/04/21 00:03:36;;;;;;;14.45;5.25;;;14.60;99.90;;;;;;5044941;28;20412;-75
2022/04/21 00:06:04;;;;;;;15.63;4.75;;;14.60;99.90;;;;;;5075275;28;20110;-75
2022/04/21 00:08:32;;;;;;;16.35;5.68;;;14.60;99.90;;;;;;5077489;28;20072;-76
2022/04/21 00:10:59;;;;;;;14.15;5.43;;;14.70;99.90;;;;;;5068112;28;20706;-75
2022/04/21 00:13:27;;;;;;;13.23;4.63;;;14.60;99.90;;;;;;5047534;28;20510;-76
2022/04/21 00:15:55;;;;;;;10.55;4.28;;;14.70;99.90;;;;;;5044642;28;20052;-76
2022/04/21 00:18:23;;;;;;;10.35;4.35;;;14.70;99.90;;;;;;5046896;28;20102;-75
2022/04/21 00:20:50;;;;;;;19.13;4.63;;;14.70;99.90;;;;;;5052611;28;20059;-76
2022/04/21 00:23:26;;;;;;;10.93;5.70;;;14.70;99.90;;;;;;5080909;28;20068;-76
2022/04/21 00:25:55;;;;;;;;;;;14.70;99.90;;;;;;5063414;28;20036;-76
2022/04/21 00:28:23;;;;;;;11.32;5.75;;;14.70;99.90;;;;;;5080623;28;19928;-76
2022/04/21 00:30:51;;;;;;;9.88;5.05;;;14.70;99.90;;;;;;5082453;28;20119;-76
2022/04/21 00:33:18;;;;;;;10.40;4.45;;;14.70;99.90;;;;;;5054564;28;20757;-76
2022/04/21 00:35:46;;;;;;;14.70;3.95;;;14.60;99.90;;;;;;5054863;28;20039;-75
2022/04/21 00:38:14;;;;;;;7.93;4.78;;;14.60;99.90;;;;;;5071318;28;20040;-76
2022/04/21 00:40:41;;;;;;;11.65;5.65;;;14.60;99.90;;;;;;5054089;28;20067;-76
2022/04/21 00:43:09;;;;;;;12.25;6.25;;;14.60;99.90;;;;;;5037841;28;20064;-75
2022/04/21 00:45:37;;;;;;;12.38;4.78;;;14.60;99.90;;;;;;5072664;28;20785;-75
2022/04/21 00:48:05;;;;;;;15.18;6.43;;;14.60;99.90;;;;;;5072211;28;20048;-75
2022/04/21 00:50:37;;;;;;;16.48;4.60;;;14.50;99.90;;;;;;5050340;28;20057;-76
2022/04/21 00:53:07;;;;;;;19.58;5.55;;;14.50;99.90;;;;;;5034130;28;20053;-76
2022/04/21 00:55:38;;;;;;;16.52;5.68;;;14.50;99.90;;;;;;5052250;28;20411;-76
2022/04/21 00:58:07;;;;;;;13.15;4.20;;;14.50;99.90;;;;;;5034779;28;20458;-74
2022/04/21 01:00:35;;;;;;;14.73;5.97;;;14.50;99.90;;;;;;5050805;28;20107;-75
2022/04/21 01:03:04;;;;;;;13.13;5.40;;;14.50;99.90;;;;;;5050970;28;20046;-75
2022/04/21 01:05:33;;;;;;;14.35;5.50;;;14.50;99.90;;;;;;5050439;28;20503;-74
2022/04/21 01:08:02;;;;;;;9.20;4.65;;;14.50;99.90;;;;;;5035028;28;20049;-75
2022/04/21 01:10:31;;;;;;;8.80;5.38;;;14.50;99.90;;;;;;5034464;28;20372;-75
2022/04/21 01:12:59;;;;;;;17.38;6.63;;;14.50;99.90;;;;;;5033839;28;20052;-75
2022/04/21 01:15:27;;;;;;;17.70;6.70;;;14.50;99.90;;;;;;5050843;28;20761;-75
2022/04/21 01:17:55;;;;;;;13.35;4.85;;;14.50;99.90;;;;;;5067760;28;20055;-74
2022/04/21 01:20:24;;;;;;;12.80;4.85;;;14.50;99.90;;;;;;5034655;28;20114;-75
2022/04/21 01:22:52;;;;;;;9.40;4.72;;;14.50;99.90;;;;;;5050075;28;20049;-75
2022/04/21 01:25:21;;;;;;;8.82;4.50;;;14.50;99.90;;;;;;5050655;28;20103;-75
2022/04/21 01:27:52;;;;;;;14.45;7.38;;;14.60;99.90;;;;;;5033873;28;20580;-75
2022/04/21 01:30:19;;;;;;;12.30;5.20;;;14.60;99.90;;;;;;5017854;28;20053;-75
2022/04/21 01:32:51;;;;;;;26.75;6.45;;;14.60;99.90;;;;;;5050349;28;20052;-75
2022/04/21 01:35:18;;;;;;;16.17;5.47;;;14.60;99.90;;;;;;5050556;28;20056;-75
2022/04/21 01:43:18;;;;;;;10.55;4.57;;;14.60;99.90;;;;;;5050784;28;20448;-75
2022/04/21 01:45:45;;;;;;;10.57;4.53;;;14.60;99.90;;;;;;5050213;28;20487;-76
2022/04/21 01:48:13;;;;;;;11.10;4.32;;;14.60;99.90;;;;;;5033698;28;20510;-75
2022/04/21 01:50:41;;;;;;;11.77;4.75;;;14.60;99.90;;;;;;5049577;28;20094;-75
2022/04/21 01:53:08;;;;;;;8.60;4.80;;;14.70;99.90;;;;;;5049915;28;20056;-76
2022/04/21 01:55:36;;;;;;;7.70;4.90;;;14.60;99.90;;;;;;5033794;28;20052;-76
2022/04/21 01:58:03;;;;;;;15.50;6.43;;;14.60;99.90;;;;;;5033232;28;20052;-76
2022/04/21 02:00:31;;;;;;;13.82;4.95;;;14.70;99.90;;;;;;5033290;28;20053;-76
2022/04/21 02:02:59;;;;;;;12.50;4.40;;;14.60;99.90;;;;;;5016958;28;20048;-76
2022/04/21 02:05:26;;;;;;;11.77;6.78;;;14.70;99.90;;;;;;5050579;28;20139;-75
2022/04/21 02:07:54;;;;;;;9.93;5.28;;;14.60;99.90;;;;;;5053158;28;20411;-76
2022/04/21 02:10:22;;;;;;;16.77;5.57;;;14.70;99.90;;;;;;5053060;28;20153;-75
2022/04/21 02:12:50;;;;;;;12.52;6.50;;;14.60;99.90;;;;;;5052612;28;20505;-75
2022/04/21 02:15:18;;;;;;;13.73;5.30;;;14.60;99.90;;;;;;5052934;28;20036;-76
2022/04/21 02:17:46;;;;;;;12.45;5.72;;;14.60;99.90;;;;;;5020057;28;20048;-76
2022/04/21 02:20:15;;;;;;;14.95;4.97;;;14.60;99.90;;;;;;5018965;28;20058;-76
2022/04/21 02:22:44;;;;;;;14.50;4.25;;;14.70;99.90;;;;;;5035900;28;20052;-75
2022/04/21 02:25:13;;;;;;;12.55;5.78;;;14.70;99.90;;;;;;5053270;28;20083;-75
2022/04/21 02:27:46;;;;;;;11.98;5.45;;;14.70;99.90;;;;;;5053103;28;20044;-75
2022/04/21 02:30:16;;;;;;;25.33;7.72;;;14.70;99.90;;;;;;5036265;28;20131;-75
2022/04/21 02:32:43;;;;;;;14.60;5.75;;;14.70;99.90;;;;;;5052664;28;20041;-75
2022/04/21 02:35:12;;;;;;;14.27;6.47;;;14.70;99.90;;;;;;5070519;28;20086;-76
2022/04/21 02:37:41;;;;;;;17.65;6.22;;;14.70;99.90;;;;;;5052766;28;20048;-74
2022/04/21 02:40:10;;;;;;;8.48;5.32;;;14.70;99.90;;;;;;5052718;28;20043;-76
2022/04/21 02:42:38;;;;;;;8.60;4.40;;;14.70;99.90;;;;;;5020111;28;20052;-74
2022/04/21 02:45:11;;;;;;;9.90;4.75;;;14.70;99.90;;;;;;5035663;28;20571;-75
2022/04/21 02:47:40;;;;;;;14.65;5.80;;;14.70;99.90;;;;;;5053085;28;20407;-75
2022/04/21 02:50:09;;;;;;;18.85;6.35;;;14.70;99.90;;;;;;5035654;28;20460;-75
2022/04/21 02:52:37;;;;;;;13.45;6.15;;;14.70;99.90;;;;;;5035889;28;20063;-75
2022/04/21 02:57:53;;;;;;;;;;;14.80;99.90;;;;;;5056096;28;20421;-75
2022/04/21 03:00:20;;;;;;;14.27;4.95;;;14.70;99.90;;;;;;5053754;28;20356;-76
2022/04/21 03:02:48;;;;;;;10.07;4.82;;;14.70;99.90;;;;;;5067530;28;20482;-75
2022/04/21 03:05:16;;;;;;;16.20;5.32;;;14.70;99.90;;;;;;5038760;28;20052;-74
2022/04/21 03:07:44;;;;;;;12.07;4.60;;;14.70;99.90;;;;;;5053881;28;20055;-75
2022/04/21 03:10:12;;;;;;;16.40;5.45;;;14.70;99.90;;;;;;5071570;28;20410;-77
2022/04/21 03:12:39;;;;;;;12.27;4.85;;;14.70;99.90;;;;;;5072049;28;20090;-75
2022/04/21 03:15:11;;;;;;;12.85;5.85;;;14.70;99.90;;;;;;5039131;28;20142;-74
2022/04/21 03:17:39;;;;;;;19.13;5.05;;;14.70;99.90;;;;;;5056221;28;20795;-74
2022/04/21 03:20:07;;;;;;;10.93;5.47;;;14.70;99.90;;;;;;5039145;28;20052;-75
2022/04/21 03:25:21;;;;;;;12.30;5.30;;;14.70;99.90;;;;;;5071574;28;20048;-75
2022/04/21 03:27:50;;;;;;;14.90;5.07;;;14.70;99.90;;;;;;5090194;28;20056;-75
2022/04/21 03:30:18;;;;;;;14.23;5.22;;;14.70;99.90;;;;;;5056295;28;20044;-75
2022/04/21 03:32:45;;;;;;;10.73;4.28;;;14.70;99.90;;;;;;5059056;28;20163;-75
2022/04/21 03:35:13;;;;;;;16.13;5.80;;;14.70;99.90;;;;;;5043036;28;20072;-75
2022/04/21 03:37:40;;;;;;;15.52;5.70;;;14.70;99.90;;;;;;5075597;28;20050;-75
2022/04/21 03:40:08;;;;;;;12.32;5.38;;;14.70;99.90;;;;;;5042947;28;20058;-75
2022/04/21 03:42:36;;;;;;;14.80;5.43;;;14.70;99.90;;;;;;5076733;28;20040;-75
2022/04/21 03:45:04;;;;;;;13.00;6.18;;;14.70;99.90;;;;;;5042635;28;20052;-75
2022/04/21 03:47:31;;;;;;;14.50;5.22;;;14.70;99.90;;;;;;5058903;28;20086;-75
2022/04/21 03:49:59;;;;;;;17.33;5.47;;;14.70;99.90;;;;;;5067002;28;20147;-75
2022/04/21 03:52:26;;;;;;;15.20;6.78;;;14.70;99.90;;;;;;5038826;28;20525;-75
2022/04/21 03:54:54;;;;;;;9.48;4.63;;;14.70;99.90;;;;;;5044814;28;20093;-74
2022/04/21 03:57:21;;;;;;;13.93;6.43;;;14.70;99.90;;;;;;5058921;28;20678;-76
2022/04/21 03:59:49;;;;;;;11.38;6.25;;;14.70;99.90;;;;;;5093822;28;20056;-75
2022/04/21 04:02:16;;;;;;;15.43;5.20;;;14.70;99.90;;;;;;5075132;28;20124;-74
2022/04/21 04:04:44;;;;;;;14.52;6.18;;;14.70;99.90;;;;;;5075011;28;20036;-75
2022/04/21 04:12:43;;;;;;;11.18;5.00;;;14.70;99.90;;;;;;5058885;28;20056;-75
2022/04/21 04:15:11;;;;;;;11.93;4.82;;;14.70;99.90;;;;;;5058532;28;20502;-75
2022/04/21 04:17:38;;;;;;;10.85;4.65;;;14.70;99.90;;;;;;5075560;28;20132;-75
2022/04/21 04:20:06;;;;;;;16.23;7.30;;;14.70;99.90;;;;;;5075393;28;20056;-75
2022/04/21 04:22:40;;;;;;;9.30;5.05;;;14.70;99.90;;;;;;5074836;28;20054;-75
2022/04/21 04:25:10;;;;;;;18.45;5.82;;;14.70;99.90;;;;;;5093317;28;20556;-75
2022/04/21 04:27:38;;;;;;;12.75;5.35;;;14.70;99.90;;;;;;5058640;28;20099;-75
2022/04/21 04:30:08;;;;;;;11.95;4.90;;;14.70;99.90;;;;;;5092996;28;20097;-75
2022/04/21 04:32:36;;;;;;;12.10;5.30;;;14.70;99.90;;;;;;5075500;28;20474;-75
2022/04/21 04:35:04;;;;;;;20.13;6.45;;;14.70;99.90;;;;;;5058076;28;20054;-75
2022/04/21 04:37:32;;;;;;;11.95;5.05;;;14.80;99.90;;;;;;5074838;28;20858;-74
2022/04/21 04:40:00;;;;;;;11.32;5.13;;;14.70;99.90;;;;;;5075085;28;20151;-75
2022/04/21 04:42:28;;;;;;;20.60;6.15;;;14.80;99.90;;;;;;5057785;28;20052;-74
2022/04/21 04:47:42;;;;;;;11.55;5.88;;;14.70;99.90;;;;;;5072726;28;20047;-75
2022/04/21 04:50:10;;;;;;;13.07;4.97;;;14.80;99.90;;;;;;5092364;28;20048;-75
2022/04/21 04:52:38;;;;;;;12.20;5.03;;;14.80;99.90;;;;;;5074539;28;20082;-76
2022/04/21 04:55:11;;;;;;;16.67;4.82;;;14.80;99.90;;;;;;5041570;28;20101;-74
2022/04/21 04:57:39;;;;;;;15.00;5.57;;;14.70;99.90;;;;;;5058223;28;20692;-74
2022/04/21 05:00:08;;;;;;;12.82;6.07;;;14.70;99.90;;;;;;5074328;28;20050;-74
2022/04/21 05:02:36;;;;;;;9.90;5.20;;;14.70;99.90;;;;;;5057869;28;20387;-75
2022/04/21 05:05:05;;;;;;;15.48;7.05;;;14.70;99.90;;;;;;5074132;28;20052;-75
2022/04/21 05:07:33;;;;;;;12.18;6.47;;;14.70;99.90;;;;;;5073708;28;20106;-75
2022/04/21 05:10:01;;;;;;;11.32;6.03;;;14.70;99.90;;;;;;5074096;28;20052;-75
2022/04/21 05:12:29;;;;;;;13.82;5.22;;;14.70;99.90;;;;;;5073904;28;20085;-76
2022/04/21 05:14:57;;;;;;;9.05;4.85;;;14.70;99.90;;;;;;5057933;28;20142;-76
2022/04/21 05:17:25;;;;;;;19.17;5.78;;;14.70;99.90;;;;;;5074432;28;20058;-75
2022/04/21 05:20:05;;;;;;;18.48;6.00;;;14.70;99.90;;;;;;5073693;28;20121;-75
2022/04/21 05:22:37;;;;;;;9.20;6.20;;;14.70;99.90;;;;;;5073714;28;20055;-75
2022/04/21 05:25:09;;;;;;;15.98;5.75;;;14.70;99.90;;;;;;5040526;28;20049;-75
2022/04/21 05:27:38;;;;;;;27.73;5.53;;;14.70;99.90;;;;;;5073758;28;20398;-74
2022/04/21 05:32:57;;;;;;;18.55;6.55;;;14.70;99.90;;;;;;5073080;28;20044;-75
2022/04/21 05:35:25;;;;;;;12.10;4.90;;;14.70;99.90;;;;;;5073160;28;20153;-75
2022/04/21 05:37:53;;;;;;;12.48;4.78;;;14.70;99.90;;;;;;5040105;28;20052;-75
2022/04/21 05:40:21;;;;;;;17.08;5.05;;;14.70;99.90;;;;;;5057325;28;20075;-75
2022/04/21 05:42:53;;;;;;;7.55;4.75;;;14.70;99.90;;;;;;5057282;28;20056;-75
2022/04/21 05:45:21;;;;;;;11.43;5.97;;;14.70;99.90;;;;;;5073658;28;20130;-75
2022/04/21 05:47:49;;;;;;;13.55;4.82;;;14.70;99.90;;;;;;5054555;28;20062;-75
2022/04/21 05:50:17;;;;;;;12.25;4.47;;;14.70;99.90;;;;;;5091836;28;20166;-74
2022/04/21 05:52:48;;;;;;;11.10;5.25;;;14.70;99.90;;;;;;5056627;28;20134;-74
2022/04/21 05:55:16;;;;;;;16.85;6.93;;;14.70;99.90;;;;;;5072865;28;20494;-75
2022/04/21 05:57:45;;;;;;;12.65;4.72;;;14.60;99.90;;;;;;5057106;28;20496;-75
2022/04/21 06:00:13;;;;;;;9.90;5.40;;;14.70;99.90;;;;;;5056725;28;20040;-79
2022/04/21 06:02:40;;;;;;;10.25;4.80;;;14.70;99.90;;;;;;5056180;28;20044;-77
2022/04/21 06:05:08;;;;;;;11.70;6.15;;;14.70;99.90;;;;;;5091159;28;20368;-74
2022/04/21 06:07:35;;;;;;;11.13;4.43;;;14.80;99.90;;;;;;5073328;28;20048;-75
2022/04/21 06:10:03;;;;;;;15.10;5.20;;;14.80;99.90;;;;;;5040260;28;20063;-76
2022/04/21 06:12:31;;;;;;;10.85;5.22;;;14.80;99.90;;;;;;5072830;28;20395;-76
2022/04/21 06:14:59;;;;;;;15.40;5.90;;;14.80;99.90;;;;;;5039620;28;20146;-75
2022/04/21 06:17:26;;;;;;;11.82;5.35;;;14.90;99.90;;;;;;5073330;28;20510;-75
2022/04/21 06:19:55;;;;;;;14.52;6.53;;;14.90;99.90;;;;;;5056088;28;20084;-76
2022/04/21 06:22:22;;;;;;;15.00;6.18;;;14.90;99.90;;;;;;5072996;28;20498;-75
2022/04/21 06:24:50;;;;;;;9.02;5.78;;;14.90;99.90;;;;;;5039063;28;20052;-76
2022/04/21 06:27:17;;;;;;;16.45;5.03;;;14.90;99.90;;;;;;5039730;28;20138;-75
2022/04/21 06:29:46;;;;;;;11.60;5.45;;;15.00;99.90;;;;;;5072955;28;20039;-75
2022/04/21 06:32:13;;;;;;;10.15;4.85;;;15.00;99.90;;;;;;5072568;28;20048;-77
2022/04/21 06:34:41;;;;;;;18.80;4.75;;;15.00;99.90;;;;;;5090812;28;20063;-76
2022/04/21 06:37:08;;;;;;;13.38;5.63;;;15.00;99.90;;;;;;5073146;28;20934;-75
2022/04/21 06:39:36;;;;;;;11.70;5.65;;;15.00;99.90;;;;;;5056365;28;20072;-75
2022/04/21 06:42:04;;;;;;;15.88;5.47;;;15.00;99.90;;;;;;5055542;28;20082;-75
2022/04/21 06:50:06;;;;;;;11.07;4.23;;;15.00;99.90;;;;;;5056041;28;20060;-75
2022/04/21 06:52:33;;;;;;;17.45;5.28;;;15.00;99.90;;;;;;5072727;28;20400;-76
2022/04/21 06:55:01;;;;;;;9.55;5.40;;;15.00;99.90;;;;;;5072719;28;20036;-76
2022/04/21 06:57:29;;;;;;;13.05;4.13;;;15.00;99.90;;;;;;5055628;28;20059;-75
2022/04/21 06:59:56;;;;;;;11.60;5.78;;;15.10;99.90;;;;;;5072524;28;20048;-77
2022/04/21 07:02:27;;;;;;;12.77;6.30;;;15.10;99.90;;;;;;5055653;28;20188;-76
2022/04/21 07:05:02;;;;;;;10.35;4.18;;;15.10;99.90;;;;;;5055208;28;20072;-75
2022/04/21 07:07:30;;;;;;;14.52;4.40;;;15.10;99.90;;;;;;5072758;28;20055;-74
2022/04/21 07:09:58;;;;;;;11.73;4.78;;;15.20;99.90;;;;;;5071962;28;20062;-75
2022/04/21 07:12:29;;;;;;;13.43;4.43;;;15.10;99.90;;;;;;5055701;28;20051;-75
2022/04/21 07:14:58;;;;;;;10.13;4.80;;;15.20;99.90;;;;;;5055447;28;20052;-75
2022/04/21 07:17:26;;;;;;;11.13;5.80;;;15.30;99.90;;;;;;5055878;28;20130;-74
2022/04/21 07:19:54;;;;;;;16.63;4.45;;;15.30;99.90;;;;;;5090225;28;20409;-74
2022/04/21 07:22:25;;;;;;;20.92;5.95;;;15.30;99.90;;;;;;5038977;28;20048;-74
2022/04/21 07:24:54;;;;;;;15.98;5.45;;;15.30;99.90;;;;;;5054266;28;20044;-75
2022/04/21 07:27:22;;;;;;;13.98;4.95;;;15.40;99.90;;;;;;5055449;28;20425;-75
2022/04/21 07:29:50;;;;;;;9.98;4.18;;;15.40;99.90;;;;;;5055506;28;20127;-74
2022/04/21 07:32:18;;;;;;;8.50;3.70;;;15.40;99.90;;;;;;5038652;28;20044;-74
2022/04/21 07:34:46;;;;;;;9.27;3.80;;;15.40;99.90;;;;;;5071680;28;20044;-75
2022/04/21 07:37:14;;;;;;;6.00;3.70;;;15.40;99.90;;;;;;5077261;28;20051;-74
2022/04/21 07:39:42;;;;;;;4.03;2.60;;;15.40;99.90;;;;;;5035670;28;20828;-75
2022/04/21 07:42:10;;;;;;;15.30;4.63;;;15.40;99.90;;;;;;5035642;28;20060;-75
2022/04/21 07:44:39;;;;;;;8.65;3.03;;;15.40;99.90;;;;;;5018872;28;20044;-74
2022/04/21 07:47:07;;;;;;;10.57;4.95;;;15.50;99.90;;;;;;5052152;28;20087;-75
2022/04/21 07:49:45;;;;;;;8.38;3.65;;;15.60;99.90;;;;;;5035503;28;20170;-75
2022/04/21 07:55:18;;;;;;;9.70;3.85;;;15.70;99.90;;;;;;5069834;28;20052;-75
2022/04/21 07:57:47;;;;;;;8.77;3.75;;;15.80;99.90;;;;;;5069842;28;20052;-75
2022/04/21 08:00:16;;;;;;;13.90;4.57;;;15.80;99.90;;;;;;5019173;28;20040;-74
2022/04/21 08:02:46;;;;;;;15.05;4.63;;;15.90;99.90;;;;;;5052042;28;20044;-75
2022/04/21 08:05:16;;;;;;;11.48;3.72;;;15.90;99.90;;;;;;5034981;28;20524;-75
2022/04/21 08:07:44;;;;;;;10.52;4.10;;;15.90;99.90;;;;;;5051607;28;20056;-74
2022/04/21 08:10:15;;;;;;;7.90;2.95;;;16.00;99.90;;;;;;5051724;28;20041;-76
2022/04/21 08:12:48;;;;;;;9.70;3.53;;;16.10;99.90;;;;;;5069154;28;20176;-76
2022/04/21 08:15:25;;;;;;;8.02;5.43;;;16.20;99.90;;;;;;5051657;28;20041;-76
2022/04/21 08:17:54;;;;;;;7.10;3.13;;;16.20;99.90;;;;;;5053079;28;20058;-76
2022/04/21 08:20:23;;;;;;;9.48;3.72;;;16.30;99.90;;;;;;5054922;28;20548;-73
2022/04/21 08:22:51;;;;;;;10.05;3.65;;;16.30;99.90;;;;;;5054565;28;20053;-74
2022/04/21 08:34:17;;;;;;;12.17;4.23;;;16.30;99.90;;;;;;5055014;28;20067;-73
2022/04/21 08:36:46;;;;;;;9.25;4.43;;;16.20;99.90;;;;;;5067155;28;20043;-74
2022/04/21 08:39:14;;;;;;;11.57;4.45;;;16.20;99.90;;;;;;5042153;28;20055;-74
2022/04/21 08:41:47;;;;;;;12.73;4.78;;;16.20;99.90;;;;;;5058149;28;20066;-74
2022/04/21 08:44:19;;;;;;;8.63;2.95;;;16.30;99.90;;;;;;5058164;28;20063;-74
2022/04/21 08:46:48;;;;;;;9.93;3.50;;;16.20;99.90;;;;;;5074524;28;20040;-74
2022/04/21 08:49:19;;;;;;;7.35;3.22;;;16.20;99.90;;;;;;5075183;28;20040;-74
2022/04/21 08:51:47;;;;;;;9.55;3.92;;;16.20;99.90;;;;;;5041652;28;20048;-75
2022/04/21 08:54:15;;;;;;;7.00;4.10;;;16.20;99.90;;;;;;5057831;28;20610;-74
2022/04/21 08:56:43;;;;;;;8.20;3.25;;;16.30;99.90;;;;;;5041709;28;20052;-75
2022/04/21 08:59:11;;;;;;;8.45;3.88;;;16.40;99.90;;;;;;5074548;28;20044;-74
2022/04/21 09:01:38;;;;;;;7.25;2.97;;;16.50;99.90;;;;;;5073657;28;20052;-74
2022/04/21 09:04:06;;;;;;;9.88;4.28;;;16.50;99.90;;;;;;5074163;28;20086;-72
2022/04/21 09:06:38;;;;;;;8.50;3.92;;;16.50;99.90;;;;;;5057844;28;20130;-73
2022/04/21 09:09:16;;;;;;;10.68;3.75;;;16.50;99.90;;;;;;5041533;28;20063;-72
2022/04/21 09:11:45;;;;;;;10.50;4.32;;;16.40;99.90;;;;;;5057415;28;20151;-72
2022/04/21 09:14:17;;;;;;;12.25;3.83;;;16.60;99.90;;;;;;5074599;28;20040;-72
2022/04/21 09:16:45;;;;;;;7.15;3.75;;;16.80;99.90;;;;;;5074406;28;20044;-74
2022/04/21 09:19:14;;;;;;;12.48;4.28;;;16.90;99.90;;;;;;5057762;28;20052;-73
2022/04/21 09:21:42;;;;;;;14.05;4.65;;;16.90;99.90;;;;;;5057498;28;20063;-72
2022/04/21 09:24:23;;;;;;;11.57;4.03;;;17.10;99.90;;;;;;5056583;28;20710;-73
2022/04/21 09:26:52;;;;;;;12.20;4.40;;;17.30;99.90;;;;;;5079284;28;20507;-74
2022/04/21 09:29:25;;;;;;;6.80;3.53;;;17.40;99.90;;;;;;5020507;28;20055;-72
2022/04/21 09:31:59;;;;;;;9.95;3.67;;;17.30;99.90;;;;;;5036853;28;20053;-73
2022/04/21 09:34:33;;;;;;;9.55;4.40;;;17.40;99.90;;;;;;5053586;28;20040;-73
2022/04/21 09:37:03;;;;;;;6.68;3.60;;;17.50;99.90;;;;;;5037358;28;20048;-73
2022/04/21 09:39:31;;;;;;;8.38;3.25;;;17.50;99.90;;;;;;5037729;28;20055;-73
2022/04/21 09:41:59;;;;;;;11.40;4.85;;;17.30;99.90;;;;;;5053852;28;20036;-72
2022/04/21 09:47:27;;;;;;;6.55;3.50;;;17.10;99.90;;;;;;5071867;28;20041;-70
2022/04/21 09:49:57;;;;;;;7.82;3.55;;;17.10;99.90;;;;;;5037187;28;20055;-71
2022/04/21 09:52:28;;;;;;;9.02;4.30;;;16.90;99.90;;;;;;5036969;28;20406;-71
2022/04/21 09:54:56;;;;;;;12.45;4.45;;;16.90;99.90;;;;;;5037365;28;20498;-69
2022/04/21 09:57:31;;;;;;;9.05;4.32;;;17.00;99.90;;;;;;5070890;28;20045;-73
2022/04/21 09:59:59;;;;;;;8.38;4.03;;;17.00;99.90;;;;;;5071429;28;20055;-74
2022/04/21 10:02:30;;;;;;;8.23;3.35;;;17.00;99.90;;;;;;5053314;28;20052;-73
2022/04/21 10:04:58;;;;;;;7.80;3.42;;;16.90;99.90;;;;;;5037038;28;20117;-72
2022/04/21 10:07:27;;;;;;;5.82;3.75;;;16.90;99.90;;;;;;5071376;28;20060;-75
2022/04/21 10:09:56;;;;;;;8.95;4.65;;;16.80;99.90;;;;;;5074010;28;20068;-73
2022/04/21 10:12:24;;;;;;;10.80;3.55;;;16.70;99.90;;;;;;5054740;28;20060;-74
2022/04/21 10:14:53;;;;;;;9.38;4.43;;;16.60;99.90;;;;;;5036168;28;20040;-70
2022/04/21 10:17:21;;;;;;;13.23;3.55;;;16.60;99.90;;;;;;5036774;28;20055;-70
2022/04/21 10:19:53;;;;;;;11.43;2.88;;;16.50;99.90;;;;;;5053499;28;20071;-72
2022/04/21 10:22:27;;;;;;;5.45;3.72;;;16.50;99.90;;;;;;5037402;28;20044;-74
2022/04/21 10:24:57;;;;;;;11.85;3.45;;;16.50;99.90;;;;;;5077371;28;20050;-70
2022/04/21 10:27:39;;;;;;;9.18;4.10;;;16.50;99.90;;;;;;5056708;28;20054;-74
2022/04/21 10:30:12;;;;;;;7.35;4.05;;;16.50;99.90;;;;;;5072444;28;20118;-71
2022/04/21 10:32:48;;;;;;;6.75;3.53;;;16.40;99.90;;;;;;5055274;28;20051;-72
2022/04/21 10:35:19;;;;;;;9.73;3.92;;;16.50;99.90;;;;;;5055788;28;20348;-73
2022/04/21 10:37:47;;;;;;;12.43;4.25;;;16.40;99.90;;;;;;5072825;28;20036;-73
2022/04/21 10:40:21;;;;;;;8.63;3.22;;;16.30;99.90;;;;;;5071363;28;20054;-72
2022/04/21 10:42:52;;;;;;;10.23;3.65;;;16.40;99.90;;;;;;5055538;28;20044;-74
2022/04/21 10:45:29;;;;;;;13.15;3.60;;;16.30;99.90;;;;;;5072370;28;20051;-70
2022/04/21 10:48:45;;;;;;;8.55;3.92;;;16.20;99.90;;;;;;5055760;28;20044;-70
2022/04/21 10:57:36;;;;;;;5.97;2.47;;;16.60;99.90;;;;;;5090091;28;20081;-73
2022/04/21 11:00:08;;;;;;;12.63;3.50;;;16.60;99.90;;;;;;5055482;28;20073;-73
2022/04/21 11:02:59;;;;;;;8.05;3.95;;;16.60;99.90;;;;;;5055363;28;20044;-72
2022/04/21 11:05:35;;;;;;;6.32;3.97;;;16.60;99.90;;;;;;5055280;28;20040;-72
2022/04/21 11:08:10;;;;;;;7.35;3.45;;;16.70;99.90;;;;;;5038484;28;20055;-72
2022/04/21 11:10:43;;;;;;;8.70;4.63;;;16.70;99.90;;;;;;5071750;28;20036;-73
2022/04/21 11:13:19;;;;;;;5.50;2.90;;;16.70;99.90;;;;;;5055207;28;20052;-73
2022/04/21 11:15:54;;;;;;;5.73;2.63;;;16.70;99.90;;;;;;5069783;28;20032;-72
2022/04/21 11:18:29;;;;;;;8.15;3.28;;;16.80;99.90;;;;;;5038834;28;20286;-73
2022/04/21 11:21:27;;;;;;;13.32;4.00;;;16.80;99.90;;;;;;5038536;28;20048;-72
2022/04/21 11:23:58;;;;;;;11.73;4.78;;;16.80;99.90;;;;;;5071256;28;20043;-76
2022/04/21 11:26:28;;;;;;;8.65;2.75;;;16.80;99.90;;;;;;5055206;28;20110;-72
2022/04/21 11:29:02;;;;;;;8.40;3.08;;;16.90;99.90;;;;;;5071335;28;20557;-73
2022/04/21 11:31:30;;;;;;;6.35;2.90;;;16.90;99.90;;;;;;5054662;28;20079;-71
2022/04/21 11:34:02;;;;;;;12.00;4.38;;;16.90;99.90;;;;;;5054857;28;20151;-71
2022/04/21 11:36:38;;;;;;;5.95;3.22;;;16.80;99.90;;;;;;5072727;28;20048;-73
2022/04/21 11:39:07;;;;;;;7.90;3.35;;;16.90;99.90;;;;;;5071705;28;20044;-71
2022/04/21 11:41:42;;;;;;;8.75;3.20;;;17.00;99.90;;;;;;5038682;28;20044;-72
2022/04/21 11:44:10;;;;;;;9.55;3.00;;;17.10;99.90;;;;;;5039383;28;20052;-74
2022/04/21 11:46:41;;;;;;;6.03;2.85;;;17.00;99.90;;;;;;5055550;28;20494;-71
2022/04/21 11:49:08;;;;;;;6.88;3.17;;;17.10;99.90;;;;;;5055611;28;20052;-72
2022/04/21 11:51:36;;;;;;;8.38;2.47;;;17.10;99.90;;;;;;5073103;28;20040;-72
2022/04/21 11:54:06;;;;;;;5.93;2.75;;;17.10;99.90;;;;;;5043151;28;20098;-72
2022/04/21 11:56:34;;;;;;;5.25;3.72;;;17.00;99.90;;;;;;5075816;28;20054;-71
2022/04/21 11:59:09;;;;;;;6.68;3.33;;;17.00;99.90;;;;;;5058997;28;20044;-72
2022/04/21 12:07:18;;;;;;;8.73;3.83;;;16.90;99.90;;;;;;5055326;28;20067;-72
2022/04/21 12:09:50;;;;;;;10.85;3.67;;;16.90;99.90;;;;;;5070071;28;20049;-73
2022/04/21 12:12:21;;;;;;;8.27;3.45;;;16.70;99.90;;;;;;5048343;28;20391;-72
2022/04/21 12:14:49;;;;;;;9.60;3.67;;;16.80;99.90;;;;;;5053347;28;20044;-72
2022/04/21 12:17:16;;;;;;;5.35;3.83;;;16.90;99.90;;;;;;5063253;28;20068;-73
2022/04/21 12:19:46;;;;;;;11.57;5.15;;;16.90;99.90;;;;;;5052953;28;20040;-75
2022/04/21 12:22:17;;;;;;;6.70;3.88;;;17.00;99.90;;;;;;5051734;28;20507;-76
2022/04/21 12:24:46;;;;;;;6.40;3.17;;;17.10;99.90;;;;;;5053662;28;20049;-74
2022/04/21 12:27:18;;;;;;;7.63;3.75;;;17.10;99.90;;;;;;5060879;28;20080;-75
2022/04/21 12:29:48;;;;;;;4.95;2.95;;;17.00;99.90;;;;;;5038094;28;20654;-72
2022/04/21 12:32:18;;;;;;;8.30;3.50;;;17.00;99.90;;;;;;5067561;28;20479;-72
2022/04/21 12:34:46;;;;;;;8.02;4.05;;;17.10;99.90;;;;;;5035759;28;20106;-75
2022/04/21 12:37:14;;;;;;;10.82;3.63;;;17.20;99.90;;;;;;5058923;28;20095;-71
2022/04/21 12:39:43;;;;;;;7.13;3.90;;;17.20;99.90;;;;;;5053161;28;20049;-72
2022/04/21 12:42:29;;;;;;;8.27;2.63;;;17.20;99.90;;;;;;5060350;28;20171;-72
2022/04/21 12:45:00;;;;;;;15.48;4.32;;;17.40;99.90;;;;;;5038404;28;20054;-71
2022/04/21 12:47:28;;;;;;;10.05;3.97;;;17.30;99.90;;;;;;5061777;28;20095;-71
2022/04/21 12:50:12;;;;;;;6.90;3.20;;;17.20;99.90;;;;;;5053883;28;20102;-71
2022/04/21 12:52:40;;;;;;;10.25;4.25;;;17.10;99.90;;;;;;5046309;28;20048;-72
2022/04/21 12:55:28;;;;;;;8.15;3.10;;;17.10;99.90;;;;;;5051422;28;20411;-74
2022/04/21 12:58:05;;;;;;;6.80;2.58;;;17.10;99.90;;;;;;5064046;28;20127;-72
2022/04/21 13:00:35;;;;;;;8.82;3.33;;;17.10;99.90;;;;;;5048928;28;20059;-71
2022/04/21 13:03:03;;;;;;;9.82;4.03;;;17.00;99.90;;;;;;5040244;28;20056;-71
2022/04/21 13:05:32;;;;;;;11.18;4.25;;;17.00;99.90;;;;;;5039731;28;20044;-72
2022/04/21 13:08:00;;;;;;;10.27;3.25;;;16.80;99.90;;;;;;5037778;28;20484;-71
2022/04/21 13:10:28;;;;;;;10.35;3.35;;;16.60;99.90;;;;;;5059755;28;20044;-72
2022/04/21 13:12:56;;;;;;;10.23;3.45;;;16.50;99.90;;;;;;5037948;28;20399;-73
2022/04/21 13:15:24;;;;;;;4.10;2.90;;;16.50;99.90;;;;;;5057197;28;20502;-71
2022/04/21 13:17:52;;;;;;;8.95;3.75;;;16.60;99.90;;;;;;5062069;28;20041;-71
2022/04/21 13:23:05;;;;;;;7.13;2.88;;;16.50;99.90;;;;;;5064654;28;20529;-70
2022/04/21 13:25:35;;;;;;;7.68;3.72;;;16.50;99.90;;;;;;5046558;28;20051;-72
2022/04/21 13:28:03;;;;;;;7.13;3.95;;;16.50;99.90;;;;;;5037593;28;20056;-72
2022/04/21 13:30:31;;;;;;;10.15;3.78;;;16.50;99.90;;;;;;5028682;28;20054;-74
2022/04/21 13:35:45;;;;;;;10.50;4.50;;;16.50;99.90;;;;;;5045793;28;20067;-71
2022/04/21 13:38:16;;;;;;;13.07;5.10;;;16.40;99.90;;;;;;5020814;28;20060;-73
2022/04/21 13:40:45;;;;;;;6.93;3.90;;;16.40;99.90;;;;;;5076787;28;20139;-72
2022/04/21 13:43:13;;;;;;;6.25;3.35;;;16.40;99.90;;;;;;5058879;28;20044;-70
2022/04/21 13:46:00;;;;;;;8.27;3.55;;;16.40;99.90;;;;;;5048032;28;20137;-71
2022/04/21 13:48:28;;;;;;;6.72;3.63;;;16.40;99.90;;;;;;5088854;28;20206;-71
2022/04/21 13:50:56;;;;;;;8.82;3.65;;;16.40;99.90;;;;;;5052779;28;20585;-71
2022/04/21 13:53:24;;;;;;;12.30;5.18;;;16.50;99.90;;;;;;5069768;28;20101;-70